createdAt,value
2019-02-24T00:00:52.648Z,6.17
2019-02-24T00:03:21.468Z,6.87
2019-02-24T00:05:50.180Z,5.62
2019-02-24T00:08:18.939Z,16.23
2019-02-24T00:10:47.652Z,6.12
2019-02-24T00:13:16.446Z,6.58
2019-02-24T00:15:45.115Z,5.17
2019-02-24T00:18:13.506Z,6.42
2019-02-24T00:20:42.457Z,7.25
2019-02-24T00:23:11.500Z,5.33
2019-02-24T00:25:40.189Z,5.00
2019-02-24T00:28:08.884Z,5.33
2019-02-24T00:30:37.553Z,5.45
2019-02-24T00:33:06.244Z,7.37
2019-02-24T00:35:34.916Z,3.60
2019-02-24T00:38:03.699Z,6.87
2019-02-24T00:40:32.044Z,7.42
2019-02-24T00:43:00.872Z,11.00
2019-02-24T00:45:29.571Z,4.03
2019-02-24T00:47:58.268Z,6.75
2019-02-24T00:50:26.924Z,5.65
2019-02-24T00:52:55.907Z,5.67
2019-02-24T00:55:24.833Z,5.25
2019-02-24T00:57:53.683Z,5.65
2019-02-24T01:00:22.916Z,5.95
2019-02-24T01:02:51.424Z,6.75
2019-02-24T01:05:20.309Z,6.15
2019-02-24T01:07:49.346Z,7.75
2019-02-24T01:10:18.781Z,6.70
2019-02-24T01:12:47.853Z,8.43
2019-02-24T01:15:16.552Z,9.03
2019-02-24T01:17:45.261Z,6.80
2019-02-24T01:20:13.942Z,7.15
2019-02-24T01:22:42.273Z,5.65
2019-02-24T01:25:11.006Z,7.85
2019-02-24T01:27:39.681Z,7.08
2019-02-24T01:30:09.582Z,8.00
2019-02-24T01:32:38.275Z,4.35
2019-02-24T01:35:07.232Z,9.88
2019-02-24T01:37:36.150Z,8.30
2019-02-24T01:40:05.022Z,7.20
2019-02-24T01:42:33.663Z,5.28
2019-02-24T01:45:02.025Z,5.95
2019-02-24T01:47:30.981Z,6.40
2019-02-24T01:49:59.709Z,11.78
2019-02-24T01:52:28.442Z,7.12
2019-02-24T01:54:57.186Z,6.72
2019-02-24T01:57:25.857Z,8.85
2019-02-24T01:59:54.568Z,7.03
2019-02-24T02:02:23.224Z,6.10
2019-02-24T02:04:52.185Z,3.92
2019-02-24T02:07:20.558Z,3.20
2019-02-24T02:09:49.295Z,8.30
2019-02-24T02:12:17.991Z,7.00
2019-02-24T02:14:46.765Z,7.58
2019-02-24T02:17:15.420Z,6.90
2019-02-24T02:19:44.095Z,7.37
2019-02-24T02:22:13.082Z,7.03
2019-02-24T02:24:41.837Z,5.10
2019-02-24T02:27:10.572Z,9.55
2019-02-24T02:29:38.844Z,6.45
2019-02-24T02:32:07.576Z,7.60
2019-02-24T02:34:36.273Z,11.18
2019-02-24T02:37:04.941Z,6.62
2019-02-24T02:39:33.637Z,4.90
2019-02-24T02:42:02.315Z,7.33
2019-02-24T02:44:30.995Z,3.70
2019-02-24T02:46:59.954Z,3.02
2019-02-24T02:49:28.439Z,4.45
2019-02-24T02:51:57.559Z,7.42
2019-02-24T02:54:26.542Z,5.30
2019-02-24T02:56:55.188Z,4.75
2019-02-24T02:59:23.965Z,5.55
2019-02-24T03:01:52.722Z,9.33
2019-02-24T03:04:21.383Z,4.03
2019-02-24T03:07:09.202Z,3.90
2019-02-24T03:09:37.917Z,9.53
2019-02-24T03:12:06.253Z,4.55
2019-02-24T03:14:35.329Z,7.28
2019-02-24T03:17:04.176Z,9.25
2019-02-24T03:19:32.863Z,7.58
2019-02-24T03:22:01.663Z,8.60
2019-02-24T03:24:30.601Z,3.90
2019-02-24T03:26:59.329Z,7.25
2019-02-24T03:29:28.018Z,5.22
2019-02-24T03:31:56.740Z,4.50
2019-02-24T03:34:25.009Z,5.70
2019-02-24T03:36:53.679Z,5.92
2019-02-24T03:39:22.349Z,5.72
2019-02-24T03:41:51.307Z,6.25
2019-02-24T03:44:19.951Z,5.42
2019-02-24T03:46:48.595Z,4.33
2019-02-24T03:49:17.299Z,9.33
2019-02-24T03:51:45.961Z,5.00
2019-02-24T03:54:14.221Z,7.28
2019-02-24T03:56:42.896Z,9.55
2019-02-24T03:59:15.026Z,5.42
2019-02-24T04:01:41.939Z,4.47
2019-02-24T04:04:10.605Z,11.15
2019-02-24T04:06:40.750Z,4.35
2019-02-24T04:09:09.709Z,13.22
2019-02-24T04:11:38.460Z,4.75
2019-02-24T04:14:07.523Z,6.53
2019-02-24T04:16:36.214Z,6.37
2019-02-24T04:19:04.896Z,6.80
2019-02-24T04:21:33.613Z,5.40
2019-02-24T04:24:02.249Z,4.75
2019-02-24T04:26:30.929Z,6.50
2019-02-24T04:28:59.585Z,28.23
2019-02-24T04:31:28.258Z,24.90
2019-02-24T04:33:56.926Z,15.05
2019-02-24T04:36:25.592Z,8.18
2019-02-24T04:38:53.931Z,7.05
2019-02-24T04:41:22.591Z,7.45
2019-02-24T04:43:51.236Z,6.78
2019-02-24T04:46:19.935Z,6.05
2019-02-24T04:48:48.730Z,8.08
2019-02-24T04:51:17.420Z,9.88
2019-02-24T04:53:46.105Z,9.00
2019-02-24T04:56:14.957Z,7.33
2019-02-24T04:58:43.687Z,9.15
2019-02-24T05:01:12.322Z,3.95
2019-02-24T05:03:41.451Z,10.90
2019-02-24T05:06:10.215Z,7.05
2019-02-24T05:08:38.944Z,4.67
2019-02-24T05:11:07.625Z,5.87
2019-02-24T05:13:36.305Z,5.15
2019-02-24T05:16:04.957Z,6.95
2019-02-24T05:18:33.760Z,6.58
2019-02-24T05:21:02.449Z,6.67
2019-02-24T05:23:31.153Z,5.47
2019-02-24T05:26:00.121Z,5.58
2019-02-24T05:28:28.834Z,5.47
2019-02-24T05:30:57.476Z,4.70
2019-02-24T05:33:26.564Z,7.22
2019-02-24T05:35:55.293Z,6.17
2019-02-24T05:38:23.984Z,4.17
2019-02-24T05:40:52.645Z,5.08
2019-02-24T05:43:20.951Z,4.15
2019-02-24T05:45:49.634Z,4.58
2019-02-24T05:48:18.315Z,7.10
2019-02-24T05:50:47.097Z,6.65
2019-02-24T05:53:15.836Z,10.68
2019-02-24T05:55:44.591Z,10.25
2019-02-24T05:58:13.271Z,6.90
2019-02-24T06:00:41.919Z,12.80
2019-02-24T06:03:10.562Z,6.87
2019-02-24T06:05:38.958Z,10.40
2019-02-24T06:08:07.730Z,14.10
2019-02-24T06:10:36.381Z,8.23
2019-02-24T06:13:05.365Z,7.67
2019-02-24T06:15:34.011Z,7.40
2019-02-24T06:18:02.754Z,4.78
2019-02-24T06:20:31.425Z,9.33
2019-02-24T06:23:00.118Z,6.45
2019-02-24T06:25:28.505Z,3.20
2019-02-24T06:27:56.786Z,8.55
2019-02-24T06:30:25.444Z,10.13
2019-02-24T06:32:54.121Z,5.50
2019-02-24T06:35:22.823Z,9.05
2019-02-24T06:37:51.498Z,5.50
2019-02-24T06:40:20.202Z,11.30
2019-02-24T06:42:48.878Z,6.65
2019-02-24T06:45:17.577Z,8.53
2019-02-24T06:47:46.027Z,37.90
2019-02-24T06:50:14.814Z,28.75
2019-02-24T06:52:43.650Z,24.20
2019-02-24T06:55:12.317Z,12.20
2019-02-24T06:57:41.003Z,14.93
2019-02-24T07:00:14.235Z,11.93
2019-02-24T07:02:40.214Z,9.70
2019-02-24T07:05:08.904Z,9.38
2019-02-24T07:07:37.223Z,5.20
2019-02-24T07:10:06.631Z,10.08
2019-02-24T07:12:35.760Z,11.28
2019-02-24T07:15:04.781Z,10.58
2019-02-24T07:17:33.447Z,8.08
2019-02-24T07:20:02.109Z,8.20
2019-02-24T07:22:30.751Z,5.87
2019-02-24T07:24:59.437Z,9.08
2019-02-24T07:27:28.098Z,7.28
2019-02-24T07:29:56.447Z,4.80
2019-02-24T07:32:25.436Z,12.43
2019-02-24T07:34:54.439Z,5.85
2019-02-24T07:37:23.105Z,7.17
2019-02-24T07:39:51.835Z,7.00
2019-02-24T07:42:20.521Z,12.05
2019-02-24T07:44:49.177Z,8.23
2019-02-24T07:47:17.881Z,9.43
2019-02-24T07:49:46.953Z,5.40
2019-02-24T07:52:15.317Z,10.48
2019-02-24T07:54:43.986Z,10.23
2019-02-24T07:57:12.729Z,11.33
2019-02-24T07:59:41.415Z,11.53
2019-02-24T08:02:10.133Z,22.95
2019-02-24T08:04:38.801Z,9.90
2019-02-24T08:07:07.478Z,11.73
2019-02-24T08:09:36.148Z,13.00
2019-02-24T08:12:04.818Z,10.98
2019-02-24T08:14:33.096Z,11.50
2019-02-24T08:17:01.743Z,10.90
2019-02-24T08:19:30.489Z,12.70
2019-02-24T08:21:59.182Z,14.93
2019-02-24T08:24:29.166Z,12.67
2019-02-24T08:26:58.379Z,11.03
2019-02-24T08:29:28.674Z,9.70
2019-02-24T08:31:57.841Z,9.07
2019-02-24T08:34:26.477Z,9.93
2019-02-24T08:36:54.770Z,17.13
2019-02-24T08:39:23.402Z,15.33
2019-02-24T08:41:52.145Z,7.60
2019-02-24T08:44:22.245Z,6.57
2019-02-24T08:46:51.048Z,24.43
2019-02-24T08:49:19.728Z,9.17
2019-02-24T08:51:48.385Z,9.30
2019-02-24T08:54:17.016Z,9.37
2019-02-24T08:56:45.701Z,8.50
2019-02-24T08:59:14.393Z,8.77
2019-02-24T09:01:43.344Z,9.70
2019-02-24T09:04:12.001Z,10.20
2019-02-24T09:06:40.751Z,10.13
2019-02-24T09:09:09.432Z,12.70
2019-02-24T09:11:38.130Z,12.40
2019-02-24T09:14:06.804Z,14.10
2019-02-24T09:16:36.141Z,13.00
2019-02-24T09:19:04.555Z,9.70
2019-02-24T09:21:33.367Z,8.77
2019-02-24T09:24:02.633Z,10.20
2019-02-24T09:26:31.367Z,9.70
2019-02-24T09:29:00.049Z,12.53
2019-02-24T09:31:28.728Z,8.60
2019-02-24T09:33:57.384Z,8.70
2019-02-24T09:36:26.100Z,10.80
2019-02-24T09:38:54.748Z,8.90
2019-02-24T09:41:23.128Z,13.70
2019-02-24T09:43:51.894Z,14.53
2019-02-24T09:46:20.656Z,12.27
2019-02-24T09:48:49.389Z,11.60
2019-02-24T09:51:18.107Z,16.43
2019-02-24T09:53:46.789Z,13.37
2019-02-24T09:56:15.435Z,9.53
2019-02-24T09:58:44.436Z,9.57
2019-02-24T10:01:13.187Z,10.03
2019-02-24T10:03:41.516Z,12.30
2019-02-24T10:06:10.225Z,10.80
2019-02-24T10:08:39.090Z,13.30
2019-02-24T10:11:07.799Z,12.33
2019-02-24T10:13:36.470Z,13.70
2019-02-24T10:16:05.141Z,10.27
2019-02-24T10:53:49.933Z,8.63
2019-02-24T10:56:18.208Z,8.50
2019-02-24T10:58:46.958Z,11.20
2019-02-24T11:01:15.645Z,8.27
2019-02-24T11:03:44.325Z,10.33
2019-02-24T11:06:12.994Z,13.30
2019-02-24T11:08:41.693Z,10.07
2019-02-24T11:11:10.377Z,8.03
2019-02-24T11:13:39.495Z,12.43
2019-02-24T11:16:07.817Z,10.50
2019-02-24T11:18:36.591Z,6.67
2019-02-24T11:21:05.313Z,15.40
2019-02-24T11:23:33.991Z,7.93
2019-02-24T11:26:02.854Z,9.23
2019-02-24T11:28:31.612Z,8.20
2019-02-24T11:31:00.428Z,12.60
2019-02-24T11:33:29.767Z,10.17
2019-02-24T11:35:58.483Z,8.50
2019-02-24T11:38:26.891Z,6.17
2019-02-24T11:40:55.626Z,8.10
2019-02-24T11:43:24.256Z,7.70
2019-02-24T11:45:53.357Z,7.30
2019-02-24T11:48:22.119Z,6.07
2019-02-24T11:50:50.889Z,8.10
2019-02-24T11:53:19.605Z,6.57
2019-02-24T11:55:48.345Z,7.37
2019-02-24T11:58:19.649Z,14.00
2019-02-24T12:00:47.981Z,9.07
2019-02-24T12:03:16.864Z,8.50
2019-02-24T12:05:45.833Z,7.90
2019-02-24T12:08:15.028Z,6.20
2019-02-24T12:10:43.743Z,5.73
2019-02-24T12:13:12.443Z,7.70
2019-02-24T12:15:41.124Z,7.23
2019-02-24T12:18:09.787Z,6.20
2019-02-24T12:20:38.510Z,5.37
2019-02-24T12:23:06.855Z,12.50
2019-02-24T12:25:35.544Z,8.10
2019-02-24T12:28:04.233Z,10.70
2019-02-24T12:30:32.927Z,8.50
2019-02-24T12:33:01.596Z,9.43
2019-02-24T12:35:30.258Z,10.07
2019-02-24T12:37:58.908Z,7.20
2019-02-24T12:40:27.662Z,8.50
2019-02-24T12:42:56.443Z,7.57
2019-02-24T12:45:24.708Z,8.60
2019-02-24T12:47:53.470Z,8.50
2019-02-24T12:50:22.498Z,10.70
2019-02-24T12:52:51.140Z,9.83
2019-02-24T12:55:19.879Z,14.17
2019-02-24T12:57:48.549Z,9.80
2019-02-24T13:00:18.460Z,5.93
2019-02-24T13:02:47.518Z,7.93
2019-02-24T13:05:15.812Z,7.30
2019-02-24T13:07:44.537Z,3.73
2019-02-24T13:10:14.178Z,8.20
2019-02-24T13:12:42.920Z,5.37
2019-02-24T13:15:11.710Z,13.10
2019-02-24T13:17:40.499Z,6.20
2019-02-24T13:20:10.100Z,4.60
2019-02-24T13:22:39.009Z,6.77
2019-02-24T13:25:09.812Z,10.67
2019-02-24T13:27:38.234Z,13.57
2019-02-24T13:30:07.060Z,11.70
2019-02-24T13:32:35.813Z,11.33
2019-02-24T13:35:04.503Z,11.43
2019-02-24T13:37:34.176Z,8.70
2019-02-24T13:40:02.873Z,6.40
2019-02-24T13:42:31.525Z,9.80
2019-02-24T13:45:00.295Z,12.03
2019-02-24T13:47:28.985Z,5.97
2019-02-24T13:49:57.338Z,13.83
2019-02-24T13:52:25.999Z,8.70
2019-02-24T13:54:54.699Z,8.90
2019-02-24T13:57:23.368Z,7.70
2019-02-24T13:59:52.049Z,11.80
2019-02-24T14:02:24.068Z,8.90
2019-02-24T14:04:51.173Z,9.23
2019-02-24T14:07:19.848Z,9.20
2019-02-24T14:09:48.539Z,9.10
2019-02-24T14:12:16.799Z,9.27
2019-02-24T14:14:49.094Z,7.63
2019-02-24T14:17:15.932Z,10.80
2019-02-24T14:19:44.760Z,8.40
2019-02-24T14:22:13.514Z,8.80
2019-02-24T14:24:42.200Z,10.23
2019-02-24T14:27:10.874Z,10.20
2019-02-24T14:29:39.865Z,9.30
2019-02-24T14:32:08.553Z,10.50
2019-02-24T14:34:36.825Z,12.90
2019-02-24T14:37:05.517Z,8.63
2019-02-24T14:39:34.202Z,8.60
2019-02-24T14:42:04.127Z,10.50
2019-02-24T14:44:33.265Z,10.80
2019-02-24T14:47:02.004Z,12.13
2019-02-24T14:49:30.728Z,7.77
2019-02-24T14:51:59.376Z,11.80
2019-02-24T14:54:28.114Z,10.87
2019-02-24T14:56:56.458Z,8.60
2019-02-24T14:59:25.669Z,11.00
2019-02-24T15:01:54.387Z,12.03
2019-02-24T15:04:23.227Z,9.63
2019-02-24T15:06:52.187Z,15.10
2019-02-24T15:09:20.976Z,12.00
2019-02-24T15:11:49.672Z,9.20
2019-02-24T15:14:18.364Z,11.87
2019-02-24T15:16:46.716Z,88.97
2019-02-24T15:19:15.431Z,8.03
2019-02-24T15:21:44.121Z,8.23
2019-02-24T15:24:13.067Z,10.53
2019-02-24T15:26:41.741Z,10.20
2019-02-24T15:29:10.387Z,9.57
2019-02-24T15:31:39.040Z,7.37
2019-02-24T15:34:07.727Z,9.73
2019-02-24T15:36:36.678Z,11.00
2019-02-24T15:39:05.043Z,5.77
2019-02-24T15:41:33.796Z,9.70
2019-02-24T15:44:02.582Z,6.70
2019-02-24T15:46:31.300Z,17.63
2019-02-24T15:49:00.241Z,6.90
2019-02-24T15:51:29.913Z,8.10
2019-02-24T15:53:58.668Z,6.23
2019-02-24T15:56:27.363Z,5.40
2019-02-24T15:58:56.059Z,6.30
2019-02-24T16:01:24.399Z,9.83
2019-02-24T16:03:53.104Z,6.60
2019-02-24T16:06:21.775Z,7.27
2019-02-24T16:08:50.523Z,9.57
2019-02-24T16:11:20.276Z,6.90
2019-02-24T16:13:48.968Z,9.13
2019-02-24T16:16:17.651Z,7.83
2019-02-24T16:18:46.331Z,5.93
2019-02-24T16:21:15.032Z,7.27
2019-02-24T16:23:43.375Z,7.57
2019-02-24T16:26:12.334Z,6.90
2019-02-24T16:28:41.085Z,7.33
2019-02-24T16:31:09.752Z,7.30
2019-02-24T16:33:38.544Z,10.90
2019-02-24T16:36:08.253Z,7.43
2019-02-24T16:38:36.944Z,5.80
2019-02-24T16:41:05.754Z,6.33
2019-02-24T16:43:34.529Z,7.67
2019-02-24T16:46:02.942Z,9.57
2019-02-24T16:48:31.818Z,8.40
2019-02-24T16:51:00.516Z,8.90
2019-02-24T16:53:29.283Z,4.87
2019-02-24T16:55:58.339Z,7.80
2019-02-24T16:58:27.237Z,9.40
2019-02-24T17:00:55.974Z,14.07
2019-02-24T17:03:24.721Z,18.27
2019-02-24T17:05:54.109Z,22.20
2019-02-24T17:08:22.820Z,23.93
2019-02-24T17:10:51.525Z,26.20
2019-02-24T17:13:20.281Z,24.47
2019-02-24T17:15:49.049Z,26.17
2019-02-24T17:18:19.589Z,42.63
2019-02-24T17:20:48.222Z,27.07
2019-02-24T17:23:21.343Z,28.70
2019-02-24T17:25:50.065Z,29.40
2019-02-24T17:28:18.441Z,28.60
2019-02-24T17:30:47.517Z,37.47
2019-02-24T17:33:16.340Z,28.83
2019-02-24T17:35:45.008Z,17.70
2019-02-24T17:38:14.833Z,26.57
2019-02-24T17:40:44.637Z,23.17
2019-02-24T17:43:15.457Z,21.50
2019-02-24T17:45:44.952Z,20.27
2019-02-24T17:48:13.878Z,28.27
2019-02-24T17:50:42.229Z,18.73
2019-02-24T17:53:10.940Z,19.80
2019-02-24T17:55:39.602Z,53.57
2019-02-24T17:58:08.300Z,60.63
2019-02-24T18:00:42.957Z,23.50
2019-02-24T18:03:11.695Z,37.87
2019-02-24T18:05:40.431Z,30.90
2019-02-24T18:08:09.106Z,30.83
2019-02-24T18:10:38.808Z,26.97
2019-02-24T18:13:07.146Z,27.10
2019-02-24T18:15:36.892Z,26.65
2019-02-24T18:18:05.587Z,27.27
2019-02-24T18:20:34.282Z,27.30
2019-02-24T18:23:02.949Z,24.43
2019-02-24T18:25:31.633Z,22.80
2019-02-24T18:28:00.312Z,26.73
2019-02-24T18:30:29.088Z,24.15
2019-02-24T18:32:57.800Z,30.10
2019-02-24T18:35:28.196Z,23.32
2019-02-24T18:37:56.983Z,18.67
2019-02-24T18:40:25.712Z,25.52
2019-02-24T18:43:00.137Z,27.50
2019-02-24T18:45:25.894Z,19.80
2019-02-24T18:47:54.621Z,16.23
2019-02-24T18:50:23.297Z,13.98
2019-02-24T18:52:52.001Z,15.55
2019-02-24T18:55:20.665Z,9.18
2019-02-24T18:57:49.014Z,8.33
2019-02-24T19:00:17.878Z,18.20
2019-02-24T19:02:46.634Z,23.75
2019-02-24T19:05:15.398Z,14.28
2019-02-24T19:07:44.142Z,12.70
2019-02-24T19:10:14.234Z,11.63
2019-02-24T19:12:42.937Z,12.00
2019-02-24T19:15:13.677Z,10.70
2019-02-24T19:17:42.445Z,13.80
2019-02-24T19:20:11.155Z,13.48
2019-02-24T19:22:39.891Z,20.00
2019-02-24T19:25:09.449Z,13.40
2019-02-24T19:27:38.194Z,14.13
2019-02-24T19:30:08.166Z,15.00
2019-02-24T19:32:37.284Z,14.10
2019-02-24T19:35:06.585Z,11.15
2019-02-24T19:37:35.310Z,11.33
2019-02-24T19:40:06.156Z,11.63
2019-02-24T19:42:37.884Z,9.13
2019-02-24T19:45:07.737Z,12.25
2019-02-24T19:47:36.409Z,13.30
2019-02-24T19:50:06.120Z,12.20
2019-02-24T19:52:40.600Z,14.33
2019-02-24T19:55:09.454Z,12.23
2019-02-24T19:57:38.198Z,11.45
2019-02-24T20:00:08.761Z,9.83
2019-02-24T20:02:38.452Z,17.90
2019-02-24T20:05:06.808Z,11.25
2019-02-24T20:07:36.538Z,11.25
2019-02-24T20:10:06.258Z,11.85
2019-02-24T20:12:34.907Z,15.78
2019-02-24T20:15:03.741Z,12.18
2019-02-24T20:17:32.487Z,13.68
2019-02-24T20:20:01.257Z,14.38
2019-02-24T20:22:30.049Z,15.63
2019-02-24T20:24:58.804Z,19.75
2019-02-24T20:27:27.120Z,16.95
2019-02-24T20:29:57.954Z,14.18
2019-02-24T20:32:26.768Z,24.98
2019-02-24T20:34:55.462Z,27.07
2019-02-24T20:37:25.153Z,24.30
2019-02-24T20:39:53.849Z,22.60
2019-02-24T20:42:23.563Z,21.80
2019-02-24T20:44:53.310Z,20.62
2019-02-24T20:47:22.047Z,24.55
2019-02-24T20:49:50.376Z,19.50
2019-02-24T20:52:19.185Z,16.40
2019-02-24T20:54:48.505Z,16.75
2019-02-24T20:57:17.156Z,15.08
2019-02-24T20:59:46.358Z,15.95
2019-02-24T21:02:15.109Z,19.20
2019-02-24T21:04:45.248Z,18.80
2019-02-24T21:07:21.312Z,22.22
2019-02-24T21:09:54.502Z,18.50
2019-02-24T21:12:25.213Z,12.47
2019-02-24T21:14:54.938Z,15.95
2019-02-24T21:17:25.670Z,14.35
2019-02-24T21:19:55.357Z,15.48
2019-02-24T21:22:24.153Z,13.25
2019-02-24T21:24:53.038Z,17.92
2019-02-24T21:27:21.732Z,17.77
2019-02-24T21:29:50.792Z,11.18
2019-02-24T21:32:19.497Z,16.77
2019-02-24T21:34:47.843Z,11.88
2019-02-24T21:37:16.637Z,12.65
2019-02-24T21:39:45.722Z,16.40
2019-02-24T21:42:14.617Z,11.53
2019-02-24T21:44:46.602Z,12.03
2019-02-24T21:47:16.321Z,17.52
2019-02-24T21:49:45.037Z,21.05
2019-02-24T21:52:14.713Z,20.30
2019-02-24T21:54:44.415Z,19.92
2019-02-24T21:57:14.727Z,15.00
2019-02-24T21:59:43.912Z,13.80
2019-02-24T22:02:12.669Z,14.18
2019-02-24T22:04:41.839Z,12.37
2019-02-24T22:07:10.389Z,29.80
2019-02-24T22:09:40.028Z,14.93
2019-02-24T22:12:14.903Z,11.12
2019-02-24T22:14:45.334Z,14.07
2019-02-24T22:17:15.949Z,10.10
2019-02-24T22:19:50.393Z,12.90
2019-02-24T22:22:31.373Z,11.85
2019-02-24T22:25:00.036Z,20.72
2019-02-24T22:27:29.079Z,23.25
2019-02-24T22:29:58.161Z,25.30
2019-02-24T22:32:30.212Z,34.95
2019-02-24T22:35:02.656Z,56.05
2019-02-24T22:37:40.218Z,36.15
2019-02-24T22:40:11.220Z,20.95
2019-02-24T22:42:42.778Z,16.73
2019-02-24T22:45:16.709Z,9.88
2019-02-24T22:47:46.797Z,12.98
2019-02-24T22:50:20.555Z,15.58
2019-02-24T22:52:59.522Z,19.07
2019-02-24T22:55:29.858Z,39.53
2019-02-24T22:57:58.525Z,24.15
2019-02-24T23:00:59.178Z,32.93
2019-02-24T23:03:28.863Z,30.27
2019-02-24T23:05:57.799Z,19.55
2019-02-24T23:08:27.467Z,16.02
2019-02-24T23:10:56.496Z,20.77
2019-02-24T23:13:25.812Z,14.33
2019-02-24T23:15:54.145Z,12.43
2019-02-24T23:18:23.250Z,12.40
2019-02-24T23:20:51.992Z,11.85
2019-02-24T23:23:20.754Z,13.53
2019-02-24T23:25:49.425Z,10.35
2019-02-24T23:28:18.117Z,13.50
2019-02-24T23:30:46.788Z,9.85
2019-02-24T23:33:15.551Z,10.98
2019-02-24T23:35:44.267Z,12.78
2019-02-24T23:38:12.615Z,12.73
2019-02-24T23:40:41.350Z,11.12
2019-02-24T23:43:10.029Z,12.78
2019-02-24T23:45:38.569Z,13.13
2019-02-24T23:48:07.483Z,11.43
2019-02-24T23:50:36.017Z,11.10
2019-02-24T23:53:05.550Z,12.63
2019-02-24T23:55:33.843Z,11.85
2019-02-24T23:58:02.485Z,11.85
